Time;durP1;ratioP1;P1;durP2;ratioP2;P2;SDS_P1;SDS_P2;PMS_P1;PMS_P2;Temp;Humidity;BMP_temperature;BMP_pressure;BME280_temperature;BME280_humidity;BME280_pressure;Samples;Min_cycle;Max_cycle;Signal;HPM_P1;HPM_P2
2021/04/28 00:00:58;;;;;;;7.80;4.03;;;;;;;;;;5088029;28;20472;-56
2021/04/28 00:03:24;;;;;;;9.20;3.67;;;;;;;;;;5097430;28;20894;-57
2021/04/28 00:06:20;;;;;;;6.33;4.40;;;;;;;;;;5089201;28;20485;-56
2021/04/28 00:08:48;;;;;;;8.37;4.10;;;;;;;;;;5076819;28;20557;-57
2021/04/28 00:11:15;;;;;;;6.47;3.93;;;;;;;;;;5076427;28;20516;-55
2021/04/28 00:14:11;;;;;;;7.60;4.23;;;;;;;;;;5076600;28;20448;-53
2021/04/28 00:16:38;;;;;;;8.52;6.03;;;;;;;;;;5085101;28;20440;-52
2021/04/28 00:19:05;;;;;;;10.02;5.60;;;;;;;;;;5076094;28;20206;-58
2021/04/28 00:21:40;;;;;;;7.03;4.75;;;;;;;;;;5076524;28;20202;-53
2021/04/28 00:24:08;;;;;;;8.20;4.45;;;;;;;;;;5079704;28;20225;-53
2021/04/28 00:26:35;;;;;;;7.67;4.60;;;;;;;;;;5096379;28;20214;-55
2021/04/28 00:29:04;;;;;;;9.02;4.75;;;;;;;;;;5084993;28;20457;-55
2021/04/28 00:31:31;;;;;;;8.23;4.37;;;;;;;;;;5077073;28;20206;-51
2021/04/28 00:33:58;;;;;;;6.43;4.70;;;;;;;;;;5085638;28;20449;-54
2021/04/28 00:36:34;;;;;;;10.33;5.20;;;;;;;;;;5097312;28;20456;-51
2021/04/28 00:39:01;;;;;;;10.87;4.63;;;;;;;;;;5076917;28;20469;-58
2021/04/28 00:41:35;;;;;;;13.03;6.40;;;;;;;;;;5086351;28;20489;-57
2021/04/28 00:44:02;;;;;;;9.00;5.03;;;;;;;;;;5084551;28;20480;-59
2021/04/28 00:46:31;;;;;;;7.63;4.77;;;;;;;;;;5076291;28;20469;-57
2021/04/28 00:48:59;;;;;;;7.37;4.17;;;;;;;;;;5075722;28;20429;-54
2021/04/28 00:51:26;;;;;;;8.60;4.97;;;;;;;;;;5075873;28;20457;-57
2021/04/28 00:54:00;;;;;;;9.32;6.10;;;;;;;;;;5092125;28;20515;-58
2021/04/28 00:56:27;;;;;;;11.90;6.43;;;;;;;;;;5093300;28;20194;-51
2021/04/28 00:58:55;;;;;;;6.22;4.10;;;;;;;;;;5085249;28;20437;-60
2021/04/28 01:01:24;;;;;;;10.80;4.83;;;;;;;;;;5089240;28;20186;-56
2021/04/28 01:03:54;;;;;;;10.17;5.97;;;;;;;;;;5078344;28;20472;-53
2021/04/28 01:06:21;;;;;;;5.77;3.90;;;;;;;;;;5095654;28;20503;-57
2021/04/28 01:08:48;;;;;;;11.25;4.53;;;;;;;;;;5095601;28;20444;-54
2021/04/28 01:11:17;;;;;;;9.57;5.50;;;;;;;;;;5084160;28;20209;-47
2021/04/28 01:13:44;;;;;;;6.55;4.10;;;;;;;;;;5090809;28;20253;-55
2021/04/28 01:16:12;;;;;;;8.35;4.38;;;;;;;;;;5075855;28;20187;-53
2021/04/28 01:18:46;;;;;;;11.00;4.60;;;;;;;;;;5083951;28;20203;-51
2021/04/28 01:21:13;;;;;;;9.95;4.57;;;;;;;;;;5078070;28;20463;-54
2021/04/28 01:23:42;;;;;;;6.80;3.97;;;;;;;;;;5080559;28;20239;-54
2021/04/28 01:26:24;;;;;;;6.93;3.67;;;;;;;;;;5093209;28;20476;-56
2021/04/28 01:28:52;;;;;;;8.93;4.53;;;;;;;;;;5078879;28;20441;-56
2021/04/28 01:31:20;;;;;;;6.40;4.10;;;;;;;;;;5094977;28;20443;-58
2021/04/28 01:34:14;;;;;;;7.93;4.32;;;;;;;;;;5076778;28;20199;-57
2021/04/28 01:36:41;;;;;;;6.95;4.15;;;;;;;;;;5088659;28;20202;-59
2021/04/28 01:39:15;;;;;;;11.85;4.60;;;;;;;;;;5083175;28;20364;-56
2021/04/28 01:41:44;;;;;;;11.73;4.82;;;;;;;;;;5094621;28;20206;-58
2021/04/28 01:44:12;;;;;;;12.45;4.22;;;;;;;;;;5092146;28;20203;-57
2021/04/28 01:46:40;;;;;;;8.18;4.20;;;;;;;;;;5080286;28;20549;-57
2021/04/28 01:49:13;;;;;;;7.72;3.90;;;;;;;;;;5093277;28;20214;-57
2021/04/28 01:51:40;;;;;;;7.80;4.55;;;;;;;;;;5095066;28;20235;-53
2021/04/28 01:54:10;;;;;;;6.43;4.13;;;;;;;;;;5094919;28;20213;-58
2021/04/28 01:56:38;;;;;;;7.95;5.00;;;;;;;;;;5094865;28;20206;-56
2021/04/28 01:59:05;;;;;;;8.70;4.47;;;;;;;;;;5095340;28;20205;-53
2021/04/28 02:01:33;;;;;;;7.60;4.70;;;;;;;;;;5094592;28;20205;-57
2021/04/28 02:04:01;;;;;;;6.40;4.35;;;;;;;;;;5095031;28;20462;-59
2021/04/28 02:06:28;;;;;;;9.35;4.80;;;;;;;;;;5095353;28;20252;-53
2021/04/28 02:08:55;;;;;;;10.45;4.63;;;;;;;;;;5095281;28;20201;-57
2021/04/28 02:11:36;;;;;;;6.30;4.00;;;;;;;;;;5095092;28;20206;-57
2021/04/28 02:14:05;;;;;;;7.72;4.97;;;;;;;;;;5093474;28;20285;-57
2021/04/28 02:16:33;;;;;;;8.88;4.45;;;;;;;;;;5095312;28;20194;-54
2021/04/28 02:19:13;;;;;;;8.50;5.38;;;;;;;;;;5094814;28;20210;-51
2021/04/28 02:21:40;;;;;;;10.80;4.70;;;;;;;;;;5095507;28;20210;-57
2021/04/28 02:24:08;;;;;;;8.93;5.38;;;;;;;;;;5095728;28;20186;-56
2021/04/28 02:27:06;;;;;;;11.20;5.28;;;;;;;;;;5095626;28;20289;-54
2021/04/28 02:29:34;;;;;;;8.35;4.45;;;;;;;;;;5095893;28;20202;-60
2021/04/28 02:32:02;;;;;;;8.93;4.38;;;;;;;;;;5096612;28;20194;-54
2021/04/28 02:34:48;;;;;;;6.82;4.65;;;;;;;;;;5095725;28;20194;-56
2021/04/28 02:37:18;;;;;;;7.07;4.30;;;;;;;;;;5070432;28;20233;-55
2021/04/28 02:39:47;;;;;;;8.35;4.47;;;;;;;;;;5074837;28;20206;-50
2021/04/28 02:42:14;;;;;;;11.40;4.20;;;;;;;;;;5074123;28;20237;-55
2021/04/28 02:44:43;;;;;;;10.00;6.47;;;;;;;;;;5074518;28;20221;-54
2021/04/28 02:47:10;;;;;;;7.68;4.80;;;;;;;;;;5074800;28;20238;-54
2021/04/28 02:49:43;;;;;;;6.28;4.53;;;;;;;;;;5074549;28;20211;-54
2021/04/28 02:52:10;;;;;;;7.20;4.78;;;;;;;;;;5075087;28;20207;-57
2021/04/28 02:54:38;;;;;;;8.38;4.53;;;;;;;;;;5074805;28;20263;-58
2021/04/28 02:57:30;;;;;;;8.27;5.05;;;;;;;;;;5074106;28;20187;-57
2021/04/28 02:59:58;;;;;;;7.65;5.03;;;;;;;;;;5072727;28;20268;-58
2021/04/28 03:02:25;;;;;;;6.50;4.40;;;;;;;;;;5074101;28;20195;-58
2021/04/28 03:04:58;;;;;;;11.13;6.53;;;;;;;;;;5074455;28;20218;-54
2021/04/28 03:07:26;;;;;;;7.85;5.13;;;;;;;;;;5073713;28;20230;-54
2021/04/28 03:09:52;;;;;;;10.63;5.15;;;;;;;;;;5074174;28;20206;-53
2021/04/28 03:12:23;;;;;;;8.20;4.85;;;;;;;;;;5075026;28;20199;-57
2021/04/28 03:14:50;;;;;;;7.30;4.30;;;;;;;;;;5078338;28;20206;-54
2021/04/28 03:17:20;;;;;;;12.82;5.10;;;;;;;;;;5077916;28;20210;-54
2021/04/28 03:19:56;;;;;;;12.75;5.40;;;;;;;;;;5076644;28;20206;-54
2021/04/28 03:22:23;;;;;;;6.22;4.25;;;;;;;;;;5057662;28;20393;-55
2021/04/28 03:24:51;;;;;;;8.55;5.20;;;;;;;;;;5057448;28;20271;-54
2021/04/28 03:27:25;;;;;;;9.50;5.05;;;;;;;;;;5057025;28;20286;-59
2021/04/28 03:29:52;;;;;;;17.88;4.88;;;;;;;;;;5049479;28;20195;-57
2021/04/28 03:32:19;;;;;;;8.65;5.20;;;;;;;;;;5056778;28;20202;-53
2021/04/28 03:34:47;;;;;;;7.13;5.43;;;;;;;;;;5056974;28;20269;-58
2021/04/28 03:37:14;;;;;;;11.70;5.15;;;;;;;;;;5057301;28;20275;-57
2021/04/28 03:39:41;;;;;;;9.15;5.05;;;;;;;;;;5063651;28;20217;-52
2021/04/28 03:42:08;;;;;;;7.45;4.40;;;;;;;;;;5072583;28;20206;-54
2021/04/28 03:44:35;;;;;;;8.88;5.43;;;;;;;;;;5076907;28;20209;-58
2021/04/28 03:47:02;;;;;;;8.52;5.63;;;;;;;;;;5077668;28;20294;-53
2021/04/28 03:49:31;;;;;;;9.85;5.10;;;;;;;;;;5077688;28;20227;-55
2021/04/28 03:51:58;;;;;;;6.60;4.57;;;;;;;;;;5076867;28;20210;-54
2021/04/28 03:54:25;;;;;;;6.72;4.40;;;;;;;;;;5057995;28;20207;-54
2021/04/28 03:56:53;;;;;;;11.88;5.18;;;;;;;;;;5048179;28;20234;-52
2021/04/28 03:59:20;;;;;;;8.60;5.50;;;;;;;;;;5057119;28;20246;-56
2021/04/28 04:01:49;;;;;;;6.97;5.47;;;;;;;;;;5056707;28;20211;-53
2021/04/28 04:07:21;;;;;;;10.32;5.30;;;;;;;;;;5056698;28;20225;-51
2021/04/28 04:09:48;;;;;;;8.18;4.90;;;;;;;;;;5057249;28;20211;-58
2021/04/28 04:12:25;;;;;;;7.65;4.20;;;;;;;;;;5057011;28;20210;-53
2021/04/28 04:14:52;;;;;;;7.28;5.20;;;;;;;;;;5062149;28;20206;-54
2021/04/28 04:17:19;;;;;;;9.93;5.90;;;;;;;;;;5056944;28;20211;-57
2021/04/28 04:19:45;;;;;;;11.52;5.93;;;;;;;;;;5057088;28;20200;-54
2021/04/28 04:22:13;;;;;;;8.63;5.22;;;;;;;;;;5057306;28;20195;-62
2021/04/28 04:24:47;;;;;;;9.80;5.22;;;;;;;;;;5057936;28;20195;-49
2021/04/28 04:27:13;;;;;;;9.43;5.00;;;;;;;;;;5057124;28;20231;-55
2021/04/28 04:29:40;;;;;;;14.68;5.82;;;;;;;;;;5056665;28;20230;-56
2021/04/28 04:32:07;;;;;;;10.52;5.35;;;;;;;;;;5056823;28;20234;-58
2021/04/28 04:34:34;;;;;;;10.38;6.03;;;;;;;;;;5056569;28;20207;-57
2021/04/28 04:37:04;;;;;;;9.27;4.20;;;;;;;;;;5056671;28;20176;-53
2021/04/28 04:39:31;;;;;;;13.05;5.07;;;;;;;;;;5056129;28;20234;-57
2021/04/28 04:41:58;;;;;;;6.45;4.40;;;;;;;;;;5056096;28;20210;-58
2021/04/28 04:44:25;;;;;;;8.10;5.10;;;;;;;;;;5055783;28;20294;-55
2021/04/28 04:46:52;;;;;;;11.02;5.50;;;;;;;;;;5047999;28;20242;-54
2021/04/28 04:49:30;;;;;;;9.10;4.63;;;;;;;;;;5056194;28;20179;-54
2021/04/28 04:51:57;;;;;;;11.68;5.75;;;;;;;;;;5047707;28;20211;-56
2021/04/28 04:54:25;;;;;;;6.15;4.72;;;;;;;;;;5055788;28;20221;-51
2021/04/28 04:57:03;;;;;;;10.80;5.63;;;;;;;;;;5056367;28;20215;-56
2021/04/28 04:59:44;;;;;;;10.25;5.20;;;;;;;;;;5057980;28;20231;-59
2021/04/28 05:02:13;;;;;;;11.40;6.68;;;;;;;;;;5058969;28;20195;-55
2021/04/28 05:04:41;;;;;;;9.05;5.10;;;;;;;;;;5068945;28;20202;-55
2021/04/28 05:07:20;;;;;;;15.00;5.93;;;;;;;;;;5055825;28;20285;-56
2021/04/28 05:09:50;;;;;;;8.70;5.68;;;;;;;;;;5055616;28;20237;-57
2021/04/28 05:12:20;;;;;;;10.10;5.28;;;;;;;;;;5054529;28;20204;-58
2021/04/28 05:14:47;;;;;;;12.00;5.35;;;;;;;;;;5065807;28;20321;-57
2021/04/28 05:17:20;;;;;;;12.80;5.57;;;;;;;;;;5055445;28;20208;-54
2021/04/28 05:19:47;;;;;;;13.88;5.30;;;;;;;;;;5066386;28;20461;-57
2021/04/28 05:22:14;;;;;;;9.53;5.03;;;;;;;;;;5055458;28;20195;-54
2021/04/28 05:24:57;;;;;;;12.03;6.20;;;;;;;;;;5054628;28;20446;-57
2021/04/28 05:27:26;;;;;;;7.20;4.27;;;;;;;;;;5053825;28;20474;-58
2021/04/28 05:29:53;;;;;;;7.80;4.90;;;;;;;;;;5054418;28;20907;-57
2021/04/28 05:35:24;;;;;;;7.77;4.93;;;;;;;;;;5087173;28;20518;-60
2021/04/28 05:37:52;;;;;;;13.37;6.03;;;;;;;;;;5077558;28;20547;-56
2021/04/28 05:40:25;;;;;;;10.93;7.10;;;;;;;;;;5078728;28;20455;-56
2021/04/28 05:42:53;;;;;;;10.47;5.70;;;;;;;;;;5092482;28;20448;-59
2021/04/28 05:45:20;;;;;;;8.20;4.77;;;;;;;;;;5093352;28;20452;-55
2021/04/28 05:47:47;;;;;;;10.47;4.90;;;;;;;;;;5079809;28;20488;-59
2021/04/28 05:50:19;;;;;;;12.17;5.93;;;;;;;;;;5093114;28;20451;-57
2021/04/28 05:52:58;;;;;;;7.30;5.50;;;;;;;;;;5089714;28;20456;-59
2021/04/28 05:55:25;;;;;;;8.17;5.40;;;;;;;;;;5090817;28;20901;-59
2021/04/28 05:57:52;;;;;;;6.33;4.77;;;;;;;;;;5090115;28;20765;-57
2021/04/28 06:00:21;;;;;;;6.70;5.90;;;;;;;;;;5085387;28;20658;-55
2021/04/28 06:02:49;;;;;;;8.73;5.57;;;;;;;;;;5084944;28;20464;-61
2021/04/28 06:05:16;;;;;;;12.53;5.47;;;;;;;;;;5074956;28;20442;-58
2021/04/28 06:07:53;;;;;;;14.73;6.20;;;;;;;;;;5075105;28;20485;-58
2021/04/28 06:10:20;;;;;;;13.23;5.50;;;;;;;;;;5088612;28;20455;-53
2021/04/28 06:12:48;;;;;;;13.30;4.97;;;;;;;;;;5092802;28;20460;-55
2021/04/28 06:15:19;;;;;;;11.17;5.07;;;;;;;;;;5083612;28;20964;-49
2021/04/28 06:17:47;;;;;;;8.70;5.50;;;;;;;;;;5072953;28;20863;-59
2021/04/28 06:20:17;;;;;;;8.33;5.27;;;;;;;;;;5077372;28;20453;-53
2021/04/28 06:22:44;;;;;;;8.50;4.23;;;;;;;;;;5083136;28;20511;-59
2021/04/28 06:25:16;;;;;;;8.00;4.87;;;;;;;;;;5085172;28;20505;-57
2021/04/28 06:27:45;;;;;;;8.53;5.47;;;;;;;;;;5085672;28;20542;-60
2021/04/28 06:30:13;;;;;;;7.00;5.10;;;;;;;;;;5074476;28;20456;-57
2021/04/28 06:32:42;;;;;;;7.30;4.83;;;;;;;;;;5072437;28;20444;-57
2021/04/28 06:35:09;;;;;;;12.17;5.47;;;;;;;;;;5072021;28;20451;-57
2021/04/28 06:37:36;;;;;;;7.70;4.93;;;;;;;;;;5077168;28;20466;-58
2021/04/28 06:40:04;;;;;;;12.13;5.70;;;;;;;;;;5086462;28;20449;-58
2021/04/28 06:42:38;;;;;;;11.70;5.43;;;;;;;;;;5081913;28;20461;-60
2021/04/28 06:45:06;;;;;;;31.23;9.17;;;;;;;;;;5073194;28;20516;-59
2021/04/28 06:47:46;;;;;;;16.27;7.23;;;;;;;;;;5078008;28;20484;-59
2021/04/28 06:50:13;;;;;;;18.40;4.87;;;;;;;;;;5055575;28;20524;-55
2021/04/28 06:52:43;;;;;;;10.90;6.33;;;;;;;;;;5073266;28;20520;-60
2021/04/28 06:55:31;;;;;;;10.33;4.40;;;;;;;;;;5072487;28;20468;-60
2021/04/28 06:57:59;;;;;;;7.87;4.60;;;;;;;;;;5058271;28;20438;-60
2021/04/28 07:00:34;;;;;;;12.83;5.20;;;;;;;;;;5062496;28;20434;-61
2021/04/28 07:03:06;;;;;;;7.53;5.47;;;;;;;;;;5063532;28;20486;-60
2021/04/28 07:05:34;;;;;;;8.97;5.40;;;;;;;;;;5079385;28;20541;-58
2021/04/28 07:08:01;;;;;;;9.07;5.87;;;;;;;;;;5089024;28;20519;-57
2021/04/28 07:10:28;;;;;;;15.43;5.50;;;;;;;;;;5089092;28;20456;-56
2021/04/28 07:16:00;;;;;;;7.40;5.13;;;;;;;;;;5084777;28;20480;-56
2021/04/28 07:18:30;;;;;;;13.30;5.83;;;;;;;;;;5091396;28;20833;-53
2021/04/28 07:21:23;;;;;;;9.47;5.10;;;;;;;;;;5084671;28;20469;-58
2021/04/28 07:23:50;;;;;;;10.13;5.37;;;;;;;;;;5085158;28;20481;-59
2021/04/28 07:26:16;;;;;;;10.13;5.50;;;;;;;;;;5080487;28;20449;-57
2021/04/28 07:28:48;;;;;;;12.00;5.50;;;;;;;;;;5087463;28;20464;-60
2021/04/28 07:31:17;;;;;;;17.53;6.50;;;;;;;;;;5079573;28;20467;-59
2021/04/28 07:33:45;;;;;;;8.83;5.70;;;;;;;;;;5091833;28;20448;-55
2021/04/28 07:36:12;;;;;;;6.90;4.90;;;;;;;;;;5079212;28;20436;-56
2021/04/28 07:38:40;;;;;;;12.40;5.80;;;;;;;;;;5076088;28;20446;-59
2021/04/28 07:41:07;;;;;;;7.73;5.40;;;;;;;;;;5081344;28;20444;-61
2021/04/28 07:43:43;;;;;;;7.93;5.37;;;;;;;;;;5096340;28;20451;-55
2021/04/28 07:46:19;;;;;;;7.77;5.90;;;;;;;;;;5082982;28;20471;-59
2021/04/28 07:48:46;;;;;;;7.07;4.80;;;;;;;;;;5083242;28;20702;-55
2021/04/28 07:51:22;;;;;;;7.07;4.97;;;;;;;;;;5095900;28;20436;-58
2021/04/28 07:53:50;;;;;;;8.50;5.13;;;;;;;;;;5083819;28;20458;-55
2021/04/28 07:56:17;;;;;;;11.63;5.53;;;;;;;;;;5093371;28;20437;-54
2021/04/28 07:59:03;;;;;;;9.90;6.20;;;;;;;;;;5084309;28;20461;-54
2021/04/28 08:01:31;;;;;;;10.47;6.20;;;;;;;;;;5076147;28;20486;-51
2021/04/28 08:04:00;;;;;;;7.33;4.70;;;;;;;;;;5076192;28;20451;-57
2021/04/28 08:06:34;;;;;;;9.80;5.87;;;;;;;;;;5075666;28;20492;-57
2021/04/28 08:09:02;;;;;;;10.13;5.30;;;;;;;;;;5073815;28;20456;-55
2021/04/28 08:11:28;;;;;;;7.97;5.50;;;;;;;;;;5074760;28;20500;-60
2021/04/28 08:14:13;;;;;;;10.77;6.50;;;;;;;;;;5081609;28;20524;-58
2021/04/28 08:16:42;;;;;;;9.90;5.90;;;;;;;;;;5095642;28;20467;-58
2021/04/28 08:19:11;;;;;;;9.20;4.93;;;;;;;;;;5090982;28;20480;-55
2021/04/28 08:21:40;;;;;;;14.10;4.80;;;;;;;;;;5076244;28;20468;-56
2021/04/28 08:24:10;;;;;;;8.67;6.03;;;;;;;;;;5076827;28;20500;-56
2021/04/28 08:26:41;;;;;;;7.70;5.53;;;;;;;;;;5095630;28;20472;-51
2021/04/28 08:29:12;;;;;;;8.30;5.80;;;;;;;;;;5097057;28;20455;-54
2021/04/28 08:31:39;;;;;;;12.47;6.20;;;;;;;;;;5095848;28;20428;-57
2021/04/28 08:34:35;;;;;;;9.30;5.83;;;;;;;;;;5095066;28;20460;-57
2021/04/28 08:37:03;;;;;;;9.37;6.10;;;;;;;;;;5095027;28;20482;-53
2021/04/28 08:39:30;;;;;;;10.13;6.07;;;;;;;;;;5094885;28;20567;-61
2021/04/28 08:42:06;;;;;;;9.73;6.00;;;;;;;;;;5091418;28;20523;-60
2021/04/28 08:48:01;;;;;;;8.43;5.90;;;;;;;;;;5069273;28;20484;-53
2021/04/28 08:50:28;;;;;;;8.13;5.57;;;;;;;;;;5075588;28;20449;-53
2021/04/28 08:52:56;;;;;;;7.97;5.10;;;;;;;;;;5086255;28;20507;-59
2021/04/28 08:55:47;;;;;;;8.40;5.53;;;;;;;;;;5089497;28;20459;-60
2021/04/28 08:58:16;;;;;;;11.43;5.97;;;;;;;;;;5095497;28;20444;-59
2021/04/28 09:00:52;;;;;;;14.40;6.77;;;;;;;;;;5089615;28;20906;-58
2021/04/28 09:03:58;;;;;;;9.30;5.70;;;;;;;;;;5082838;28;20532;-58
2021/04/28 09:06:26;;;;;;;8.63;5.30;;;;;;;;;;5075945;28;20470;-54
2021/04/28 09:09:09;;;;;;;12.93;5.87;;;;;;;;;;5078483;28;20556;-58
2021/04/28 09:11:40;;;;;;;8.40;6.07;;;;;;;;;;5090280;28;20440;-58
2021/04/28 09:17:23;;;;;;;12.33;8.07;;;;;;;;;;5070533;28;20483;-57
2021/04/28 09:19:55;;;;;;;9.17;5.77;;;;;;;;;;5093481;28;20451;-53
2021/04/28 09:22:38;;;;;;;10.07;5.53;;;;;;;;;;5087212;28;20467;-60
2021/04/28 09:25:40;;;;;;;10.97;5.00;;;;;;;;;;5083603;28;20507;-56
2021/04/28 09:28:23;;;;;;;8.00;5.50;;;;;;;;;;5082004;28;20476;-57
2021/04/28 09:30:58;;;;;;;13.20;4.70;;;;;;;;;;5080841;28;20583;-57
2021/04/28 09:36:08;;;;;;;11.70;6.03;;;;;;;;;;5078854;28;20452;-50
2021/04/28 09:38:48;;;;;;;8.13;5.90;;;;;;;;;;5095492;28;20405;-61
2021/04/28 09:41:32;;;;;;;6.90;4.70;;;;;;;;;;5094094;28;20452;-61
2021/04/28 09:43:59;;;;;;;9.70;5.40;;;;;;;;;;5084064;28;20462;-57
2021/04/28 09:46:26;;;;;;;8.10;5.90;;;;;;;;;;5093934;28;20513;-62
2021/04/28 09:49:17;;;;;;;9.53;5.60;;;;;;;;;;5093148;28;20511;-58
2021/04/28 09:51:44;;;;;;;9.53;5.47;;;;;;;;;;5093570;28;20628;-58
2021/04/28 09:54:12;;;;;;;9.37;6.30;;;;;;;;;;5091999;28;20472;-56
2021/04/28 09:56:51;;;;;;;10.70;6.33;;;;;;;;;;5079286;28;20452;-58
2021/04/28 09:59:20;;;;;;;9.93;5.97;;;;;;;;;;5082468;28;20436;-59
2021/04/28 10:01:47;;;;;;;8.83;6.00;;;;;;;;;;5088758;28;20484;-60
2021/04/28 10:07:27;;;;;;;8.40;5.33;;;;;;;;;;5094582;28;20501;-51
2021/04/28 10:09:55;;;;;;;7.17;5.50;;;;;;;;;;5076806;28;20440;-57
2021/04/28 10:12:57;;;;;;;10.83;5.97;;;;;;;;;;5076810;28;20445;-58
2021/04/28 10:15:35;;;;;;;9.73;6.03;;;;;;;;;;5092708;28;20519;-57
2021/04/28 10:18:03;;;;;;;9.30;5.50;;;;;;;;;;5084102;28;20441;-54
2021/04/28 10:20:30;;;;;;;16.87;7.30;;;;;;;;;;5092432;28;20452;-54
2021/04/28 10:22:58;;;;;;;9.10;6.90;;;;;;;;;;5083876;28;20448;-56
2021/04/28 10:28:28;;;;;;;9.63;6.10;;;;;;;;;;5086448;28;20543;-56
2021/04/28 10:31:19;;;;;;;10.77;7.93;;;;;;;;;;5094754;28;20463;-54
2021/04/28 10:33:51;;;;;;;8.90;7.07;;;;;;;;;;5083726;28;20437;-58
2021/04/28 10:36:18;;;;;;;9.90;6.70;;;;;;;;;;5078720;28;20460;-52
2021/04/28 10:38:45;;;;;;;10.80;7.37;;;;;;;;;;5080621;28;20464;-57
2021/04/28 10:44:35;;;;;;;14.30;6.40;;;;;;;;;;5081170;28;20432;-57
2021/04/28 10:47:36;;;;;;;15.43;8.80;;;;;;;;;;5083398;28;20500;-60
2021/04/28 10:50:09;;;;;;;10.80;6.50;;;;;;;;;;5082372;28;20459;-60
2021/04/28 10:52:39;;;;;;;10.37;6.43;;;;;;;;;;5090274;28;20552;-57
2021/04/28 10:55:35;;;;;;;17.80;8.30;;;;;;;;;;5098046;28;20460;-55
2021/04/28 10:58:02;;;;;;;9.90;6.57;;;;;;;;;;5050488;28;20451;-59
2021/04/28 11:00:32;;;;;;;16.50;7.50;;;;;;;;;;5096013;28;20444;-52
2021/04/28 11:06:31;;;;;;;8.83;6.20;;;;;;;;;;5081301;28;20414;-54
2021/04/28 11:12:03;;;;;;;8.50;6.83;;;;;;;;;;5078956;28;20464;-53
2021/04/28 11:14:34;;;;;;;9.20;6.90;;;;;;;;;;5052813;28;20549;-47
2021/04/28 11:17:10;;;;;;;9.37;6.70;;;;;;;;;;5048610;28;20466;-60
2021/04/28 11:20:02;;;;;;;14.93;6.80;;;;;;;;;;5044828;28;20426;-59
2021/04/28 11:22:30;;;;;;;14.43;6.47;;;;;;;;;;5042032;28;20434;-52
2021/04/28 11:24:59;;;;;;;13.20;7.20;;;;;;;;;;5049926;28;20447;-57
2021/04/28 11:28:10;;;;;;;13.27;7.30;;;;;;;;;;5039576;28;20493;-54
2021/04/28 11:30:45;;;;;;;12.33;8.10;;;;;;;;;;5054419;28;20453;-58
2021/04/28 11:33:41;;;;;;;12.13;7.20;;;;;;;;;;5053304;28;20444;-50
2021/04/28 11:36:13;;;;;;;13.23;8.10;;;;;;;;;;5021815;28;20457;-56
2021/04/28 11:38:55;;;;;;;8.90;6.33;;;;;;;;;;5045771;28;20547;-59
2021/04/28 11:41:24;;;;;;;10.53;6.83;;;;;;;;;;5052900;28;20505;-57
2021/04/28 11:43:57;;;;;;;9.50;5.90;;;;;;;;;;5053509;28;20493;-57
2021/04/28 11:46:36;;;;;;;11.53;6.97;;;;;;;;;;5046730;28;20534;-57
2021/04/28 11:49:03;;;;;;;12.67;7.40;;;;;;;;;;5056451;28;20520;-53
2021/04/28 11:51:32;;;;;;;13.93;8.77;;;;;;;;;;5054702;28;20446;-52
2021/04/28 11:54:02;;;;;;;12.13;7.53;;;;;;;;;;5096696;28;20480;-56
2021/04/28 11:56:41;;;;;;;9.03;7.00;;;;;;;;;;5092279;28;20504;-57
2021/04/28 11:59:20;;;;;;;10.47;7.20;;;;;;;;;;5085418;28;20456;-54
2021/04/28 12:01:53;;;;;;;13.03;8.20;;;;;;;;;;5087285;28;20465;-55
2021/04/28 12:04:27;;;;;;;8.47;7.00;;;;;;;;;;5087717;28;20440;-59
2021/04/28 12:07:17;;;;;;;13.70;7.00;;;;;;;;;;5084490;28;20481;-60
2021/04/28 12:09:52;;;;;;;8.63;7.10;;;;;;;;;;5077890;28;20433;-55
2021/04/28 12:15:37;;;;;;;11.47;7.30;;;;;;;;;;5081205;28;20454;-58
2021/04/28 12:18:06;;;;;;;12.30;7.60;;;;;;;;;;5089808;28;20452;-56
2021/04/28 12:23:43;;;;;;;11.73;7.63;;;;;;;;;;5080895;28;20447;-61
2021/04/28 12:26:21;;;;;;;9.23;6.30;;;;;;;;;;5081388;28;20484;-58
2021/04/28 12:28:53;;;;;;;17.10;7.30;;;;;;;;;;5086225;28;20508;-56
2021/04/28 12:31:35;;;;;;;9.03;6.87;;;;;;;;;;5095317;28;20455;-55
2021/04/28 12:34:03;;;;;;;11.23;7.77;;;;;;;;;;5090258;28;20448;-51
2021/04/28 12:36:32;;;;;;;11.47;7.50;;;;;;;;;;5092436;28;20448;-55
2021/04/28 12:38:59;;;;;;;13.70;7.80;;;;;;;;;;5095360;28;20451;-57
2021/04/28 12:41:30;;;;;;;11.50;7.23;;;;;;;;;;5075251;28;20548;-57
2021/04/28 12:44:22;;;;;;;16.57;7.10;;;;;;;;;;5079786;28;20460;-51
2021/04/28 12:46:51;;;;;;;8.90;6.33;;;;;;;;;;5090511;28;20526;-56
2021/04/28 12:49:30;;;;;;;10.47;7.33;;;;;;;;;;5093000;28;20519;-58
2021/04/28 12:52:00;;;;;;;11.47;8.00;;;;;;;;;;5077539;28;20448;-54
2021/04/28 12:54:30;;;;;;;8.63;6.47;;;;;;;;;;5076496;28;20520;-56
2021/04/28 12:57:03;;;;;;;9.87;7.47;;;;;;;;;;5093102;28;20449;-56
2021/04/28 12:59:34;;;;;;;12.40;6.97;;;;;;;;;;5083640;28;20496;-55
2021/04/28 13:02:02;;;;;;;12.10;7.17;;;;;;;;;;5074897;28;20460;-58
2021/04/28 13:04:29;;;;;;;12.30;7.00;;;;;;;;;;5088168;28;20461;-57
2021/04/28 13:07:13;;;;;;;8.87;7.50;;;;;;;;;;5085829;28;20471;-57
2021/04/28 13:09:41;;;;;;;9.60;6.97;;;;;;;;;;5077230;28;20472;-57
2021/04/28 13:12:12;;;;;;;10.10;6.90;;;;;;;;;;5075265;28;20437;-55
2021/04/28 13:18:18;;;;;;;15.23;7.40;;;;;;;;;;5080106;28;20618;-60
2021/04/28 13:21:04;;;;;;;11.57;8.30;;;;;;;;;;5080928;28;20520;-60
2021/04/28 13:23:31;;;;;;;8.67;7.00;;;;;;;;;;5075195;28;20457;-54
2021/04/28 13:25:59;;;;;;;10.77;7.90;;;;;;;;;;5079775;28;20473;-56
2021/04/28 13:28:31;;;;;;;16.20;6.97;;;;;;;;;;5074707;28;20473;-58
2021/04/28 13:37:04;;;;;;;8.60;6.73;;;;;;;;;;5093266;28;20444;-55
2021/04/28 13:39:32;;;;;;;9.60;6.70;;;;;;;;;;5078414;28;20447;-58
2021/04/28 13:42:00;;;;;;;12.07;7.20;;;;;;;;;;5077027;28;20633;-53
2021/04/28 13:44:29;;;;;;;12.17;8.40;;;;;;;;;;5082889;28;20463;-54
2021/04/28 13:47:03;;;;;;;9.37;6.70;;;;;;;;;;5074249;28;20449;-59
2021/04/28 13:49:30;;;;;;;10.93;6.40;;;;;;;;;;5086959;28;20472;-53
2021/04/28 13:51:58;;;;;;;10.40;5.73;;;;;;;;;;5093698;28;20523;-58
2021/04/28 13:54:25;;;;;;;10.03;6.77;;;;;;;;;;5078810;28;20465;-59
2021/04/28 13:56:53;;;;;;;11.20;6.33;;;;;;;;;;5074251;28;20433;-57
2021/04/28 13:59:22;;;;;;;12.60;6.70;;;;;;;;;;5088882;28;20449;-52
2021/04/28 14:01:51;;;;;;;11.37;6.70;;;;;;;;;;5079885;28;20437;-56
2021/04/28 14:04:19;;;;;;;13.10;7.90;;;;;;;;;;5083400;28;20459;-62
2021/04/28 14:06:56;;;;;;;10.10;6.87;;;;;;;;;;5075012;28;20664;-53
2021/04/28 14:09:24;;;;;;;8.97;6.60;;;;;;;;;;5093767;28;20475;-59
2021/04/28 14:11:50;;;;;;;13.63;7.40;;;;;;;;;;5093054;28;20469;-51
2021/04/28 14:14:23;;;;;;;12.27;6.90;;;;;;;;;;5092762;28;20440;-56
2021/04/28 14:16:53;;;;;;;14.97;7.60;;;;;;;;;;5093778;28;20459;-53
2021/04/28 14:19:22;;;;;;;11.80;7.40;;;;;;;;;;5093553;28;20507;-60
2021/04/28 14:21:59;;;;;;;9.73;6.07;;;;;;;;;;5090514;28;20524;-55
2021/04/28 14:24:26;;;;;;;15.33;6.30;;;;;;;;;;5086869;28;20480;-58
2021/04/28 14:26:56;;;;;;;7.40;6.00;;;;;;;;;;5081061;28;20452;-52
2021/04/28 14:29:57;;;;;;;8.57;5.27;;;;;;;;;;5093432;28;20497;-53
2021/04/28 14:32:27;;;;;;;12.07;7.23;;;;;;;;;;5078221;28;20459;-56
2021/04/28 14:34:53;;;;;;;13.97;7.00;;;;;;;;;;5082304;28;20445;-58
2021/04/28 14:37:23;;;;;;;11.47;6.73;;;;;;;;;;5089290;28;20448;-49
2021/04/28 14:39:50;;;;;;;9.23;6.43;;;;;;;;;;5092991;28;20546;-57
2021/04/28 14:42:21;;;;;;;11.77;7.57;;;;;;;;;;5083205;28;20433;-59
2021/04/28 14:44:48;;;;;;;11.30;6.43;;;;;;;;;;5086166;28;20452;-54
2021/04/28 14:47:15;;;;;;;14.27;8.20;;;;;;;;;;5087282;28;20473;-51
2021/04/28 14:50:08;;;;;;;9.10;6.77;;;;;;;;;;5074007;28;20457;-57
2021/04/28 14:52:36;;;;;;;10.10;6.93;;;;;;;;;;5085081;28;20472;-57
2021/04/28 14:55:03;;;;;;;13.17;7.83;;;;;;;;;;5094764;28;20452;-49
2021/04/28 14:57:30;;;;;;;16.47;7.63;;;;;;;;;;5079630;28;20628;-56
2021/04/28 14:59:58;;;;;;;12.00;8.30;;;;;;;;;;5089940;28;20472;-60
2021/04/28 15:02:59;;;;;;;13.27;8.00;;;;;;;;;;5093537;28;20444;-56
2021/04/28 15:05:26;;;;;;;10.40;6.80;;;;;;;;;;5075587;28;20456;-53
2021/04/28 15:07:54;;;;;;;14.53;7.80;;;;;;;;;;5078498;28;20473;-54
2021/04/28 15:10:21;;;;;;;9.60;7.13;;;;;;;;;;5080907;28;20528;-50
2021/04/28 15:12:50;;;;;;;11.50;7.80;;;;;;;;;;5096069;28;20504;-57
2021/04/28 15:15:19;;;;;;;7.83;6.10;;;;;;;;;;5064899;28;20449;-59
2021/04/28 15:17:54;;;;;;;8.93;6.47;;;;;;;;;;5078044;28;20460;-51
2021/04/28 15:20:22;;;;;;;12.33;7.10;;;;;;;;;;5081760;28;20464;-55
2021/04/28 15:22:51;;;;;;;9.03;5.93;;;;;;;;;;5078223;28;20491;-59
2021/04/28 15:25:27;;;;;;;20.93;6.90;;;;;;;;;;5080534;28;20475;-58
2021/04/28 15:27:54;;;;;;;9.60;6.70;;;;;;;;;;5088148;28;20479;-56
2021/04/28 15:30:22;;;;;;;8.80;6.20;;;;;;;;;;5092829;28;20445;-60
2021/04/28 15:32:52;;;;;;;12.83;6.83;;;;;;;;;;5077571;28;20484;-58
2021/04/28 15:35:19;;;;;;;8.80;7.20;;;;;;;;;;5088800;28;20465;-59
2021/04/28 15:37:46;;;;;;;12.67;6.60;;;;;;;;;;5089882;28;20500;-59
2021/04/28 15:40:16;;;;;;;12.53;5.60;;;;;;;;;;5079774;28;20487;-59
2021/04/28 15:42:58;;;;;;;10.23;6.20;;;;;;;;;;5086921;28;20448;-57
2021/04/28 15:45:29;;;;;;;11.13;6.37;;;;;;;;;;5091672;28;20467;-58
2021/04/28 15:47:57;;;;;;;9.63;6.00;;;;;;;;;;5096177;28;20475;-58
2021/04/28 15:50:25;;;;;;;10.40;5.40;;;;;;;;;;5083832;28;20445;-52
2021/04/28 15:53:09;;;;;;;9.80;5.47;;;;;;;;;;5085267;28;20556;-57